createdAt,value
2024-02-10T00:00:41.783Z,85.60
2024-02-10T00:03:31.428Z,85.70
2024-02-10T00:06:20.598Z,85.70
2024-02-10T00:09:09.829Z,85.70
2024-02-10T00:11:59.676Z,85.70
2024-02-10T00:14:49.127Z,85.80
2024-02-10T00:17:39.863Z,85.70
2024-02-10T00:20:29.782Z,85.70
2024-02-10T00:23:19.697Z,85.70
2024-02-10T00:26:08.802Z,85.70
2024-02-10T00:28:58.235Z,85.70
2024-02-10T00:31:47.574Z,85.90
2024-02-10T00:34:41.383Z,85.90
2024-02-10T00:37:30.677Z,85.90
2024-02-10T00:40:19.760Z,86.00
2024-02-10T00:43:12.656Z,86.00
2024-02-10T00:46:01.679Z,85.90
2024-02-10T00:48:54.503Z,86.00
2024-02-10T00:51:45.029Z,86.00
2024-02-10T00:54:34.036Z,86.10
2024-02-10T00:57:23.072Z,86.10
2024-02-10T01:00:17.769Z,86.00
2024-02-10T01:03:10.548Z,86.00
2024-02-10T01:06:00.102Z,86.00
2024-02-10T01:08:52.567Z,86.90
2024-02-10T01:11:44.488Z,86.00
2024-02-10T01:14:33.856Z,86.00
2024-02-10T01:17:25.345Z,85.90
2024-02-10T01:20:17.879Z,85.70
2024-02-10T01:23:07.150Z,85.90
2024-02-10T01:25:57.657Z,85.90
2024-02-10T01:28:47.178Z,85.80
2024-02-10T01:31:36.545Z,85.70
2024-02-10T01:34:27.051Z,85.80
2024-02-10T01:37:18.762Z,85.80
2024-02-10T01:40:12.148Z,85.90
2024-02-10T01:43:05.772Z,85.70
2024-02-10T01:45:54.840Z,85.70
2024-02-10T01:48:45.078Z,85.80
2024-02-10T01:51:34.448Z,85.70
2024-02-10T01:54:23.638Z,85.60
2024-02-10T01:57:14.293Z,85.40
2024-02-10T02:00:07.440Z,85.30
2024-02-10T02:03:00.624Z,85.30
2024-02-10T02:05:50.869Z,85.20
2024-02-10T02:08:40.525Z,85.20
2024-02-10T02:11:30.383Z,85.30
2024-02-10T02:14:19.496Z,85.20
2024-02-10T02:17:10.805Z,84.90
2024-02-10T02:20:00.013Z,84.90
2024-02-10T02:22:51.693Z,85.00
2024-02-10T02:25:41.812Z,85.00
2024-02-10T02:28:31.885Z,85.00
2024-02-10T02:31:21.103Z,85.00
2024-02-10T02:34:10.125Z,85.10
2024-02-10T02:36:59.730Z,85.10
2024-02-10T02:39:50.396Z,85.00
2024-02-10T02:42:39.485Z,85.00
2024-02-10T02:45:29.086Z,85.10
2024-02-10T02:48:19.175Z,85.10
2024-02-10T02:51:08.829Z,85.10
2024-02-10T02:53:58.956Z,85.00
2024-02-10T02:56:53.161Z,85.10
2024-02-10T02:59:42.298Z,85.20
2024-02-10T03:02:33.929Z,85.30
2024-02-10T03:05:23.028Z,85.30
2024-02-10T03:08:12.080Z,85.30
2024-02-10T03:11:01.416Z,85.40
2024-02-10T03:13:52.074Z,85.40
2024-02-10T03:16:42.396Z,85.40
2024-02-10T03:19:31.942Z,85.50
2024-02-10T03:22:21.319Z,85.50
2024-02-10T03:25:13.834Z,85.50
2024-02-10T03:28:05.213Z,85.60
2024-02-10T03:30:55.894Z,85.60
2024-02-10T03:33:45.317Z,85.60
2024-02-10T03:36:34.294Z,85.60
2024-02-10T03:39:23.426Z,85.60
2024-02-10T03:42:12.514Z,85.70
2024-02-10T03:45:01.549Z,85.70
2024-02-10T03:47:52.431Z,85.70
2024-02-10T03:50:41.799Z,85.70
2024-02-10T03:53:31.870Z,85.70
2024-02-10T03:56:22.351Z,85.80
2024-02-10T03:59:11.430Z,85.80
2024-02-10T04:02:00.674Z,85.80
2024-02-10T04:04:51.938Z,85.90
2024-02-10T04:07:41.292Z,86.00
2024-02-10T04:10:30.506Z,86.10
2024-02-10T04:13:19.815Z,86.10
2024-02-10T04:16:12.303Z,86.10
2024-02-10T04:19:03.291Z,86.20
2024-02-10T04:21:53.690Z,86.30
2024-02-10T04:24:42.921Z,86.30
2024-02-10T04:27:32.009Z,86.30
2024-02-10T04:30:21.486Z,86.40
2024-02-10T04:33:10.622Z,86.40
2024-02-10T04:35:59.784Z,86.40
2024-02-10T04:38:50.632Z,86.40
2024-02-10T04:41:39.742Z,86.40
2024-02-10T04:44:28.877Z,86.50
2024-02-10T04:47:18.068Z,86.50
2024-02-10T04:50:07.651Z,86.60
2024-02-10T04:52:57.167Z,86.60
2024-02-10T04:55:47.992Z,86.50
2024-02-10T04:58:37.048Z,86.50
2024-02-10T05:01:32.971Z,86.60
2024-02-10T05:04:22.070Z,86.60
2024-02-10T05:07:11.785Z,86.50
2024-02-10T05:10:03.168Z,86.70
2024-02-10T05:12:56.949Z,86.80
2024-02-10T05:15:46.380Z,86.70
2024-02-10T05:18:35.510Z,86.80
2024-02-10T05:21:25.650Z,86.80
2024-02-10T05:24:16.220Z,86.70
2024-02-10T05:27:08.047Z,86.70
2024-02-10T05:29:58.401Z,86.70
2024-02-10T05:32:47.742Z,86.70
2024-02-10T05:35:36.763Z,86.70
2024-02-10T05:38:25.809Z,86.60
2024-02-10T05:41:14.845Z,86.60
2024-02-10T05:44:04.022Z,86.40
2024-02-10T05:46:54.586Z,86.50
2024-02-10T05:49:44.020Z,86.40
2024-02-10T05:52:36.003Z,86.50
2024-02-10T05:55:28.780Z,86.50
2024-02-10T05:58:18.002Z,86.50
2024-02-10T06:01:07.316Z,86.50
2024-02-10T06:03:59.234Z,86.60
2024-02-10T06:06:48.485Z,86.70
2024-02-10T06:09:37.754Z,86.80
2024-02-10T06:12:28.525Z,86.80
2024-02-10T06:15:19.100Z,87.60
2024-02-10T06:18:09.348Z,86.80
2024-02-10T06:21:00.419Z,86.80
2024-02-10T06:23:51.697Z,86.70
2024-02-10T06:26:40.878Z,86.70
2024-02-10T06:29:30.581Z,86.70
2024-02-10T06:32:22.364Z,86.50
2024-02-10T06:35:11.742Z,86.70
2024-02-10T06:38:02.250Z,86.70
2024-02-10T06:40:51.630Z,86.70
2024-02-10T06:43:41.007Z,86.70
2024-02-10T06:46:30.028Z,86.70
2024-02-10T06:49:22.105Z,86.80
2024-02-10T06:52:11.434Z,87.10
2024-02-10T06:55:02.150Z,87.30
2024-02-10T06:57:54.384Z,87.40
2024-02-10T07:00:44.589Z,87.30
2024-02-10T07:03:33.554Z,87.20
2024-02-10T07:06:28.605Z,87.20
2024-02-10T07:09:17.563Z,87.20
2024-02-10T07:12:09.045Z,87.10
2024-02-10T07:14:58.490Z,87.10
2024-02-10T07:17:48.557Z,87.70
2024-02-10T07:20:38.373Z,86.60
2024-02-10T07:23:28.043Z,86.30
2024-02-10T07:26:21.697Z,86.10
2024-02-10T07:29:13.102Z,86.00
2024-02-10T07:32:02.147Z,85.90
2024-02-10T07:34:51.161Z,85.60
2024-02-10T07:37:40.386Z,85.40
2024-02-10T07:40:29.750Z,85.30
2024-02-10T07:43:19.038Z,85.00
2024-02-10T07:46:09.737Z,85.10
2024-02-10T07:49:02.545Z,85.20
2024-02-10T07:51:51.991Z,85.30
2024-02-10T07:54:43.029Z,85.60
2024-02-10T07:57:35.865Z,85.80
2024-02-10T08:00:24.956Z,86.00
2024-02-10T08:03:15.539Z,86.10
2024-02-10T08:06:05.503Z,86.20
2024-02-10T08:08:58.671Z,86.20
2024-02-10T08:11:47.799Z,86.20
2024-02-10T08:14:37.965Z,86.20
2024-02-10T08:17:31.658Z,86.20
2024-02-10T08:20:24.305Z,86.10
2024-02-10T08:23:15.711Z,86.10
2024-02-10T08:26:04.815Z,86.10
2024-02-10T08:28:56.455Z,86.00
2024-02-10T08:31:45.452Z,85.90
2024-02-10T08:34:39.562Z,85.70
2024-02-10T08:37:30.960Z,85.70
2024-02-10T08:40:20.442Z,85.70
2024-02-10T08:43:10.218Z,85.70
2024-02-10T08:46:02.161Z,85.90
2024-02-10T08:48:53.074Z,85.80
2024-02-10T08:51:43.127Z,85.60
2024-02-10T08:54:33.934Z,85.60
2024-02-10T08:57:25.070Z,85.50
2024-02-10T09:00:20.493Z,85.50
2024-02-10T09:03:11.046Z,85.40
2024-02-10T09:06:00.541Z,85.20
2024-02-10T09:08:51.962Z,84.80
2024-02-10T09:11:42.738Z,84.50
2024-02-10T09:14:34.119Z,84.60
2024-02-10T09:17:24.914Z,84.60
2024-02-10T09:20:15.562Z,84.10
2024-02-10T09:23:05.389Z,84.60
2024-02-10T09:25:54.827Z,85.00
2024-02-10T09:28:47.981Z,84.10
2024-02-10T09:31:37.275Z,83.80
2024-02-10T09:34:28.287Z,83.50
2024-02-10T09:37:17.903Z,82.00
2024-02-10T09:40:10.259Z,80.90
2024-02-10T09:43:03.343Z,80.20
2024-02-10T09:45:53.901Z,79.40
2024-02-10T09:48:45.905Z,79.40
2024-02-10T09:51:36.074Z,78.60
2024-02-10T09:54:25.020Z,78.70
2024-02-10T09:57:15.728Z,79.10
2024-02-10T10:00:05.772Z,79.40
2024-02-10T10:03:04.491Z,79.20
2024-02-10T10:05:53.919Z,78.80
2024-02-10T10:08:44.324Z,78.80
2024-02-10T10:11:34.787Z,78.40
2024-02-10T10:14:25.285Z,78.60
2024-02-10T10:17:15.775Z,78.50
2024-02-10T10:20:10.574Z,78.00
2024-02-10T10:23:00.101Z,77.10
2024-02-10T10:25:49.627Z,77.50
2024-02-10T10:28:39.140Z,77.70
2024-02-10T10:31:30.776Z,76.80
2024-02-10T10:34:22.028Z,76.40
2024-02-10T10:37:14.182Z,76.00
2024-02-10T10:40:04.100Z,77.00
2024-02-10T10:42:56.577Z,75.30
2024-02-10T10:45:47.089Z,75.20
2024-02-10T10:48:36.556Z,74.60
2024-02-10T10:51:32.446Z,73.60
2024-02-10T10:54:25.382Z,73.20
2024-02-10T10:57:20.161Z,72.10
2024-02-10T11:00:13.744Z,69.60
2024-02-10T11:03:04.134Z,70.20
2024-02-10T11:05:53.287Z,71.20
2024-02-10T11:08:42.514Z,71.40
2024-02-10T11:11:39.853Z,71.80
2024-02-10T11:14:28.967Z,71.40
2024-02-10T11:17:18.012Z,70.70
2024-02-10T11:20:09.777Z,70.60
2024-02-10T11:22:59.672Z,71.10
2024-02-10T11:25:53.582Z,70.40
2024-02-10T11:28:44.035Z,70.50
2024-02-10T11:31:35.142Z,69.50
2024-02-10T11:34:24.817Z,68.70
2024-02-10T11:37:14.312Z,68.30
2024-02-10T11:40:03.516Z,67.10
2024-02-10T11:42:52.564Z,67.50
2024-02-10T11:45:43.342Z,67.30
2024-02-10T11:48:32.844Z,67.00
2024-02-10T11:51:24.468Z,67.60
2024-02-10T11:54:13.911Z,68.30
2024-02-10T11:57:04.318Z,68.60
2024-02-10T11:59:56.584Z,68.50
2024-02-10T12:02:53.128Z,69.70
2024-02-10T12:05:42.644Z,69.30
2024-02-10T12:08:32.073Z,69.50
2024-02-10T12:11:22.764Z,69.80
2024-02-10T12:14:15.345Z,70.20
2024-02-10T12:17:07.059Z,70.50
2024-02-10T12:19:58.094Z,70.80
2024-02-10T12:22:48.580Z,71.20
2024-02-10T12:25:38.716Z,71.30
2024-02-10T12:28:27.861Z,71.60
2024-02-10T12:31:22.480Z,71.50
2024-02-10T12:34:11.836Z,71.70
2024-02-10T12:37:02.340Z,71.80
2024-02-10T12:39:51.354Z,72.10
2024-02-10T12:42:43.450Z,71.90
2024-02-10T12:45:36.464Z,71.80
2024-02-10T12:48:25.588Z,72.30
2024-02-10T12:51:16.715Z,72.30
2024-02-10T12:54:07.223Z,72.20
2024-02-10T12:56:57.181Z,72.20
2024-02-10T12:59:46.299Z,72.30
2024-02-10T13:02:37.272Z,72.60
2024-02-10T13:05:28.798Z,72.80
2024-02-10T13:08:19.304Z,73.10
2024-02-10T13:11:10.814Z,73.40
2024-02-10T13:14:00.166Z,73.20
2024-02-10T13:16:49.502Z,73.00
2024-02-10T13:19:39.266Z,73.20
2024-02-10T13:22:28.391Z,73.20
2024-02-10T13:25:20.187Z,73.30
2024-02-10T13:28:12.696Z,73.10
2024-02-10T13:31:02.225Z,72.80
2024-02-10T13:33:51.565Z,73.10
2024-02-10T13:36:39.616Z,73.10
2024-02-10T13:39:46.222Z,73.00
2024-02-10T13:42:52.603Z,72.70
2024-02-10T13:46:01.367Z,72.80
2024-02-10T13:49:08.524Z,73.40
2024-02-10T13:52:14.972Z,72.80
2024-02-10T13:55:21.914Z,72.80
2024-02-10T13:58:09.963Z,72.70
2024-02-10T14:01:00.535Z,72.70
2024-02-10T14:04:07.538Z,72.70
2024-02-10T14:06:57.292Z,72.70
2024-02-10T14:09:46.184Z,72.70
2024-02-10T14:12:35.282Z,72.60
2024-02-10T14:15:28.849Z,72.40
2024-02-10T14:18:25.994Z,72.30
2024-02-10T14:21:19.119Z,72.20
2024-02-10T14:24:12.843Z,72.80
2024-02-10T14:27:15.187Z,71.80
2024-02-10T14:30:06.233Z,71.70
2024-02-10T14:32:55.897Z,72.00
2024-02-10T14:35:59.649Z,71.50
2024-02-10T14:39:00.376Z,71.20
2024-02-10T14:41:51.607Z,71.60
2024-02-10T14:44:42.395Z,71.30
2024-02-10T14:47:31.818Z,71.40
2024-02-10T14:50:22.419Z,71.70
2024-02-10T14:53:13.595Z,71.50
2024-02-10T14:56:12.050Z,71.60
2024-02-10T14:59:03.816Z,72.10
2024-02-10T15:01:54.937Z,71.90
2024-02-10T15:04:48.592Z,71.90
2024-02-10T15:07:37.802Z,71.50
2024-02-10T15:10:28.915Z,71.40
2024-02-10T15:13:23.644Z,71.50
2024-02-10T15:16:19.310Z,71.50
2024-02-10T15:19:08.616Z,71.30
2024-02-10T15:22:00.301Z,71.60
2024-02-10T15:24:49.731Z,71.60
2024-02-10T15:27:40.217Z,71.30
2024-02-10T15:30:29.368Z,71.50
2024-02-10T15:33:20.444Z,71.70
2024-02-10T15:36:26.178Z,71.90
2024-02-10T15:39:18.246Z,71.80
2024-02-10T15:42:07.568Z,72.20
2024-02-10T15:45:00.190Z,72.30
2024-02-10T15:47:50.090Z,72.40
2024-02-10T15:50:39.808Z,72.60
2024-02-10T15:53:29.400Z,72.70
2024-02-10T15:56:19.170Z,72.80
2024-02-10T15:59:08.782Z,73.00
2024-02-10T16:01:59.589Z,73.20
2024-02-10T16:04:50.616Z,73.10
2024-02-10T16:07:41.843Z,73.00
2024-02-10T16:10:31.622Z,72.90
2024-02-10T16:13:22.323Z,72.50
2024-02-10T16:16:14.114Z,72.20
2024-02-10T16:19:08.111Z,72.20
2024-02-10T16:21:57.522Z,71.90
2024-02-10T16:24:49.906Z,71.80
2024-02-10T16:27:40.901Z,71.80
2024-02-10T16:30:33.588Z,71.90
2024-02-10T16:33:23.975Z,72.10
2024-02-10T16:36:16.786Z,72.30
2024-02-10T16:39:08.402Z,72.50
2024-02-10T16:41:58.678Z,72.30
2024-02-10T16:44:48.356Z,72.10
2024-02-10T16:47:37.725Z,72.00
2024-02-10T16:50:28.809Z,72.00
2024-02-10T16:53:19.600Z,72.10
2024-02-10T16:56:09.272Z,72.30
2024-02-10T16:58:58.425Z,72.30
2024-02-10T17:01:47.568Z,72.30
2024-02-10T17:04:37.847Z,72.30
2024-02-10T17:07:30.939Z,72.40
2024-02-10T17:10:21.730Z,72.30
2024-02-10T17:13:11.856Z,72.30
2024-02-10T17:16:01.506Z,72.20
2024-02-10T17:18:51.119Z,72.00
2024-02-10T17:21:42.755Z,72.10
2024-02-10T17:24:32.340Z,72.80
2024-02-10T17:27:22.697Z,72.10
2024-02-10T17:30:12.851Z,72.00
2024-02-10T17:33:04.634Z,72.10
2024-02-10T17:35:54.679Z,72.20
2024-02-10T17:38:45.043Z,72.20
2024-02-10T17:41:36.448Z,72.10
2024-02-10T17:44:26.956Z,72.30
2024-02-10T17:47:20.302Z,72.40
2024-02-10T17:50:11.327Z,72.50
2024-02-10T17:53:02.099Z,72.60
2024-02-10T17:55:52.120Z,72.70
2024-02-10T17:58:41.169Z,73.00
2024-02-10T18:01:33.696Z,73.40
2024-02-10T18:04:22.938Z,74.30
2024-02-10T18:07:14.566Z,73.40
2024-02-10T18:10:05.896Z,73.60
2024-02-10T18:12:55.066Z,73.70
2024-02-10T18:15:44.348Z,73.90
2024-02-10T18:18:34.734Z,74.00
2024-02-10T18:21:23.868Z,74.20
2024-02-10T18:24:13.194Z,74.20
2024-02-10T18:27:05.383Z,74.30
2024-02-10T18:29:56.456Z,74.40
2024-02-10T18:32:48.248Z,74.40
2024-02-10T18:35:40.184Z,74.60
2024-02-10T18:38:29.492Z,74.70
2024-02-10T18:41:20.032Z,74.80
2024-02-10T18:44:11.947Z,75.00
2024-02-10T18:47:01.317Z,75.10
2024-02-10T18:49:54.565Z,75.20
2024-02-10T18:52:46.274Z,75.40
2024-02-10T18:55:35.820Z,75.70
2024-02-10T18:58:25.977Z,75.80
2024-02-10T19:01:15.044Z,76.00
2024-02-10T19:04:06.001Z,76.20
2024-02-10T19:06:55.627Z,76.40
2024-02-10T19:09:47.645Z,76.40
2024-02-10T19:12:37.836Z,76.70
2024-02-10T19:15:27.067Z,76.70
2024-02-10T19:18:20.861Z,76.80
2024-02-10T19:21:13.260Z,76.90
2024-02-10T19:24:03.395Z,77.00
2024-02-10T19:26:54.435Z,77.10
2024-02-10T19:29:43.871Z,77.30
2024-02-10T19:32:33.094Z,77.50
2024-02-10T19:35:23.553Z,77.50
2024-02-10T19:38:22.950Z,77.60
2024-02-10T19:41:18.283Z,77.70
2024-02-10T19:44:09.410Z,77.90
2024-02-10T19:46:58.625Z,78.10
2024-02-10T19:49:47.897Z,78.10
2024-02-10T19:52:37.093Z,78.20
2024-02-10T19:55:28.373Z,78.40
2024-02-10T19:58:18.863Z,78.50
2024-02-10T20:01:10.436Z,78.50
2024-02-10T20:03:59.499Z,78.60
2024-02-10T20:06:48.622Z,78.60
2024-02-10T20:09:37.691Z,78.60
2024-02-10T20:12:27.407Z,78.70
2024-02-10T20:15:18.580Z,78.70
2024-02-10T20:18:09.370Z,78.70
2024-02-10T20:20:58.446Z,78.80
2024-02-10T20:23:48.102Z,78.90
2024-02-10T20:26:40.341Z,79.00
2024-02-10T20:29:31.679Z,79.00
2024-02-10T20:32:23.517Z,79.10
2024-02-10T20:35:14.225Z,79.20
2024-02-10T20:38:03.321Z,79.20
2024-02-10T20:40:52.633Z,79.30
2024-02-10T20:43:42.565Z,79.40
2024-02-10T20:46:32.056Z,79.40
2024-02-10T20:49:22.486Z,79.40
2024-02-10T20:52:15.134Z,79.60
2024-02-10T20:55:04.886Z,79.70
2024-02-10T20:57:54.030Z,79.60
2024-02-10T21:00:43.280Z,79.60
2024-02-10T21:03:32.435Z,79.70
2024-02-10T21:06:27.905Z,79.70
2024-02-10T21:09:18.806Z,79.70
2024-02-10T21:12:09.142Z,79.80
2024-02-10T21:14:59.452Z,79.80
2024-02-10T21:17:48.672Z,79.80
2024-02-10T21:20:37.997Z,79.90
2024-02-10T21:23:30.630Z,79.90
2024-02-10T21:26:21.233Z,80.00
2024-02-10T21:29:11.512Z,79.90
2024-02-10T21:32:01.042Z,80.00
2024-02-10T21:34:50.213Z,79.90
2024-02-10T21:37:39.606Z,79.80
2024-02-10T21:40:28.637Z,79.90
2024-02-10T21:43:22.436Z,80.00
2024-02-10T21:46:11.422Z,80.10
2024-02-10T21:49:01.912Z,80.10
2024-02-10T21:51:55.133Z,80.20
2024-02-10T21:54:46.751Z,80.30
2024-02-10T21:57:37.337Z,80.30
2024-02-10T22:00:28.531Z,80.40
2024-02-10T22:03:19.013Z,80.50
2024-02-10T22:06:08.127Z,80.50
2024-02-10T22:08:59.206Z,80.50
2024-02-10T22:11:48.308Z,80.60
2024-02-10T22:14:38.025Z,80.70
2024-02-10T22:17:30.653Z,80.70
2024-02-10T22:20:21.293Z,80.80
2024-02-10T22:23:10.516Z,80.80
2024-02-10T22:25:59.922Z,81.00
2024-02-10T22:28:49.102Z,80.90
2024-02-10T22:31:40.147Z,80.90
2024-02-10T22:34:31.229Z,81.00
2024-02-10T22:37:24.610Z,81.00
2024-02-10T22:40:17.643Z,81.00
2024-02-10T22:43:08.761Z,81.10
2024-02-10T22:45:57.840Z,81.00
2024-02-10T22:48:47.210Z,81.00
2024-02-10T22:51:38.295Z,81.00
2024-02-10T22:54:28.971Z,81.00
2024-02-10T22:57:18.060Z,81.00
2024-02-10T23:00:14.297Z,81.00
2024-02-10T23:03:03.615Z,81.10
2024-02-10T23:05:52.989Z,81.00
2024-02-10T23:08:44.464Z,81.00
2024-02-10T23:11:33.776Z,81.10
2024-02-10T23:14:22.952Z,81.00
2024-02-10T23:17:14.138Z,81.00
2024-02-10T23:20:09.445Z,81.10
2024-02-10T23:23:01.875Z,81.10
2024-02-10T23:25:54.772Z,81.10
2024-02-10T23:28:44.354Z,81.20
2024-02-10T23:31:33.858Z,81.30
2024-02-10T23:34:25.026Z,81.30
2024-02-10T23:37:22.817Z,81.30
2024-02-10T23:40:14.935Z,81.30
2024-02-10T23:43:08.562Z,81.30
2024-02-10T23:46:00.309Z,81.30
2024-02-10T23:48:54.243Z,81.40
2024-02-10T23:51:44.479Z,81.40
2024-02-10T23:54:34.742Z,81.40
2024-02-10T23:57:24.736Z,81.40
